Time;durP1;ratioP1;P1;durP2;ratioP2;P2;SDS_P1;SDS_P2;PMS_P1;PMS_P2;Temp;Humidity;BMP_temperature;BMP_pressure;BME280_temperature;BME280_humidity;BME280_pressure;Samples;Min_cycle;Max_cycle;Signal;HPM_P1;HPM_P2
2021/12/07 00:00:21;;;;;;;16.25;8.23;;;;;;;10.48;90.18;95305.75;5113161;28;20028;-65
2021/12/07 00:02:47;;;;;;;12.95;8.55;;;;;;;10.45;90.19;95296.28;5116092;28;20024;-63
2021/12/07 00:05:13;;;;;;;20.27;8.50;;;;;;;10.47;89.60;95289.19;5115791;28;20438;-65
2021/12/07 00:07:42;;;;;;;15.30;7.85;;;;;;;10.48;90.20;95295.28;5116997;28;20043;-60
2021/12/07 00:10:09;;;;;;;12.07;8.38;;;;;;;10.45;90.26;95283.22;5117029;28;20016;-64
2021/12/07 00:12:39;;;;;;;19.52;9.10;;;;;;;10.43;90.62;95295.50;5116898;28;20030;-68
2021/12/07 00:15:05;;;;;;;17.23;9.50;;;;;;;10.40;90.90;95280.00;5116833;28;20085;-63
2021/12/07 00:17:32;;;;;;;14.05;8.45;;;;;;;10.42;90.72;95287.75;5116773;28;20450;-65
2021/12/07 00:19:59;;;;;;;12.95;8.20;;;;;;;10.44;90.81;95281.50;5116452;28;20042;-66
2021/12/07 00:22:26;;;;;;;18.60;9.85;;;;;;;10.43;90.66;95285.06;5116701;28;20023;-63
2021/12/07 00:24:51;;;;;;;12.02;7.25;;;;;;;10.41;91.10;95289.53;5116790;28;20038;-64
2021/12/07 00:27:17;;;;;;;16.58;7.85;;;;;;;10.45;90.90;95288.44;5116635;28;20107;-63
2021/12/07 00:29:45;;;;;;;15.70;8.68;;;;;;;10.45;91.03;95287.59;5116565;28;20016;-63
2021/12/07 00:32:36;;;;;;;18.10;7.97;;;;;;;10.42;91.41;95275.50;5116707;28;20034;-62
2021/12/07 00:37:30;;;;;;;10.82;6.55;;;;;;;10.40;91.46;95264.31;5116508;28;20118;-63
2021/12/07 00:39:56;;;;;;;13.38;7.88;;;;;;;10.48;91.38;95277.81;5116528;28;20166;-63
2021/12/07 00:42:22;;;;;;;23.83;8.75;;;;;;;10.44;91.46;95281.50;5116671;28;20078;-68
2021/12/07 00:44:48;;;;;;;13.80;8.32;;;;;;;10.46;91.54;95271.00;5116260;28;20024;-60
2021/12/07 00:47:14;;;;;;;20.52;9.73;;;;;;;10.40;91.91;95253.00;5116308;28;20035;-59
2021/12/07 00:49:40;;;;;;;18.17;9.88;;;;;;;10.37;91.93;95254.03;5116202;27;20389;-63
2021/12/07 00:52:06;;;;;;;10.80;8.70;;;;;;;10.40;91.94;95280.00;5116556;28;20481;-62
2021/12/07 00:54:32;;;;;;;17.73;9.02;;;;;;;10.42;91.67;95269.47;5116429;28;20554;-65
2021/12/07 00:56:58;;;;;;;14.07;7.63;;;;;;;10.46;91.26;95250.06;5116169;28;20055;-63
2021/12/07 00:59:25;;;;;;;17.98;9.57;;;;;;;10.40;91.49;95264.31;5116075;28;20121;-65
2021/12/07 01:01:51;;;;;;;18.00;9.48;;;;;;;10.32;91.93;95266.50;5115971;28;20048;-59
2021/12/07 01:04:17;;;;;;;19.38;9.45;;;;;;;10.40;91.83;95266.94;5116051;28;20462;-65
2021/12/07 01:07:00;;;;;;;14.35;9.63;;;;;;;10.39;91.81;95252.19;5115967;28;20096;-62
2021/12/07 01:26:08;;;;;;;28.23;9.18;;;;;;;10.33;92.09;95223.78;5115853;28;20495;-62
2021/12/07 01:28:39;;;;;;;27.63;9.00;;;;;;;10.33;92.02;95222.00;5115530;28;20106;-65
2021/12/07 01:37:06;;;;;;;23.42;8.50;;;;;;;10.42;91.12;95207.53;5115460;28;20367;-60
2021/12/07 01:52:46;;;;;;;17.15;9.93;;;;;;;10.39;91.70;95175.53;5115158;28;20035;-63
2021/12/07 02:00:27;;;;;;;21.00;10.23;;;;;;;10.39;91.67;95184.22;5114962;28;20023;-62
2021/12/07 02:02:53;;;;;;;16.77;12.55;;;;;;;10.32;92.39;95185.50;5114827;28;20388;-60
2021/12/07 02:05:19;;;;;;;16.25;9.23;;;;;;;10.19;93.02;95173.16;5114785;28;20110;-61
2021/12/07 02:07:46;;;;;;;20.38;13.20;;;;;;;10.27;92.83;95182.31;5114718;28;20125;-63
2021/12/07 02:10:19;;;;;;;37.65;13.95;;;;;;;10.29;92.80;95170.84;5114817;28;20020;-65
2021/12/07 02:12:48;;;;;;;20.48;13.50;;;;;;;10.23;93.10;95164.22;5114731;28;20051;-65
2021/12/07 02:15:17;;;;;;;28.55;13.43;;;;;;;10.27;92.57;95172.72;5114740;28;20024;-61
2021/12/07 02:17:43;;;;;;;12.48;7.85;;;;;;;10.22;92.41;95166.91;5114527;28;20016;-60
2021/12/07 02:20:11;;;;;;;20.70;12.02;;;;;;;10.21;92.42;95170.47;5114216;28;20058;-64
2021/12/07 02:22:37;;;;;;;15.82;9.32;;;;;;;10.22;91.88;95167.75;5114447;28;20496;-62
2021/12/07 02:25:05;;;;;;;19.45;10.80;;;;;;;10.22;92.13;95174.75;5113828;28;20024;-64
2021/12/07 02:27:31;;;;;;;19.65;14.18;;;;;;;10.21;92.80;95183.53;5114268;28;20117;-64
2021/12/07 02:29:56;;;;;;;21.55;12.00;;;;;;;10.16;92.34;95173.34;5114373;28;20138;-64
2021/12/07 02:32:22;;;;;;;18.20;8.38;;;;;;;10.17;92.02;95174.19;5114290;28;20023;-64
2021/12/07 02:34:58;;;;;;;19.80;10.38;;;;;;;10.14;92.55;95169.13;5114266;28;20020;-65
2021/12/07 02:37:26;;;;;;;17.65;9.93;;;;;;;10.10;92.43;95163.25;5113079;28;20040;-67
2021/12/07 02:39:51;;;;;;;16.92;9.02;;;;;;;10.11;92.38;95170.13;5113918;28;20026;-68
2021/12/07 02:42:18;;;;;;;18.52;10.30;;;;;;;10.06;92.83;95170.41;5114108;28;20020;-64
2021/12/07 02:44:44;;;;;;;19.42;9.25;;;;;;;10.09;92.31;95151.94;5114090;28;20400;-66
2021/12/07 02:47:09;;;;;;;13.98;8.05;;;;;;;10.08;92.00;95165.09;5114009;28;20020;-65
2021/12/07 02:49:35;;;;;;;16.25;9.05;;;;;;;10.10;92.59;95158.00;5114136;27;20036;-60
2021/12/07 02:52:02;;;;;;;10.57;7.25;;;;;;;10.04;92.69;95160.97;5113889;28;20030;-61
2021/12/07 02:54:29;;;;;;;15.73;8.73;;;;;;;9.97;92.83;95150.88;5113837;28;20031;-60
2021/12/07 02:56:54;;;;;;;22.45;9.48;;;;;;;9.98;92.74;95146.50;5113788;28;20042;-64
2021/12/07 02:59:21;;;;;;;23.35;9.50;;;;;;;10.05;92.36;95147.81;5113804;28;20020;-68
2021/12/07 03:01:57;;;;;;;25.92;8.02;;;;;;;10.05;91.69;95158.28;5113747;28;20036;-62
2021/12/07 03:04:28;;;;;;;18.30;7.35;;;;;;;10.07;91.18;95147.75;5113766;28;20035;-63
2021/12/07 03:07:04;;;;;;;20.55;7.43;;;;;;;10.08;91.08;95165.09;5113877;28;20374;-63
2021/12/07 03:28:22;;;;;;;16.80;5.25;;;;;;;10.19;89.52;95131.34;5113636;28;20028;-61
2021/12/07 03:30:48;;;;;;;19.23;5.88;;;;;;;10.21;89.29;95134.69;5113502;28;20111;-61
2021/12/07 03:33:14;;;;;;;19.30;5.10;;;;;;;10.22;88.47;95136.41;5113385;28;20495;-65
2021/12/07 03:35:40;;;;;;;18.58;6.22;;;;;;;10.21;88.66;95137.31;5114705;28;20023;-63
2021/12/07 03:38:07;;;;;;;14.27;5.80;;;;;;;10.21;88.83;95128.66;5117720;28;20015;-59
2021/12/07 03:40:33;;;;;;;16.05;5.63;;;;;;;10.21;88.44;95116.41;5117421;28;20534;-67
2021/12/07 03:42:59;;;;;;;14.48;5.97;;;;;;;10.19;88.62;95114.81;5117495;28;20137;-65
2021/12/07 03:45:25;;;;;;;18.45;5.43;;;;;;;10.21;88.52;95118.19;5117636;28;20015;-62
2021/12/07 03:47:52;;;;;;;15.52;5.20;;;;;;;10.21;88.28;95113.78;5117526;28;20031;-65
2021/12/07 03:50:21;;;;;;;15.55;5.70;;;;;;;10.27;87.77;95122.22;5117360;28;20020;-66
2021/12/07 03:52:46;;;;;;;18.30;4.47;;;;;;;10.18;88.15;95137.50;5117379;28;20031;-65
2021/12/07 03:55:12;;;;;;;21.00;5.63;;;;;;;10.22;88.48;95132.94;5117403;28;20469;-63
2021/12/07 03:57:38;;;;;;;16.50;5.15;;;;;;;10.17;89.17;95122.75;5117390;28;20380;-64
2021/12/07 04:00:08;;;;;;;17.73;5.22;;;;;;;10.17;89.09;95121.94;5117185;28;20110;-66
2021/12/07 04:02:39;;;;;;;7.60;3.80;;;;;;;10.16;89.48;95122.84;5117213;28;20122;-62
2021/12/07 04:05:13;;;;;;;14.02;5.22;;;;;;;10.14;89.57;95133.38;5117089;28;20036;-63
2021/12/07 04:07:39;;;;;;;16.90;5.25;;;;;;;10.10;90.28;95134.50;5117139;28;20031;-65
2021/12/07 04:10:06;;;;;;;14.40;5.65;;;;;;;9.98;91.01;95123.84;5117114;28;20477;-62
2021/12/07 04:12:32;;;;;;;19.70;6.32;;;;;;;10.01;90.96;95125.44;5116969;28;20031;-65
2021/12/07 04:14:58;;;;;;;12.18;6.03;;;;;;;9.97;91.44;95129.16;5116863;28;20055;-65
2021/12/07 04:17:24;;;;;;;14.40;5.63;;;;;;;10.00;91.08;95136.81;5116917;28;20096;-66
2021/12/07 04:19:49;;;;;;;15.02;5.97;;;;;;;10.02;91.04;95136.72;5116630;28;20438;-66
2021/12/07 04:22:15;;;;;;;12.23;5.38;;;;;;;9.99;90.91;95132.50;5116925;28;20058;-60
2021/12/07 04:24:40;;;;;;;14.32;5.90;;;;;;;9.97;90.91;95143.03;5116778;28;20020;-59
2021/12/07 04:27:06;;;;;;;16.73;6.20;;;;;;;9.96;90.87;95132.69;5116697;28;20435;-60
2021/12/07 04:29:32;;;;;;;20.73;6.88;;;;;;;9.97;91.33;95139.59;5116727;28;20427;-65
2021/12/07 04:31:58;;;;;;;22.25;6.53;;;;;;;9.98;91.01;95136.91;5116744;28;20401;-64
2021/12/07 04:34:24;;;;;;;16.17;7.40;;;;;;;9.96;91.26;95132.69;5116549;28;20024;-66
2021/12/07 04:36:50;;;;;;;18.88;8.43;;;;;;;9.93;91.80;95140.72;5115357;28;20495;-64
2021/12/07 04:39:16;;;;;;;21.20;8.75;;;;;;;9.86;91.90;95121.94;5116505;28;20102;-62
2021/12/07 04:41:43;;;;;;;21.67;9.88;;;;;;;9.88;92.09;95124.47;5116386;28;20124;-61
2021/12/07 04:44:09;;;;;;;19.58;9.77;;;;;;;9.89;91.96;95127.00;5116362;28;20042;-62
2021/12/07 04:46:46;;;;;;;21.88;9.65;;;;;;;9.89;91.72;95127.00;5116389;28;20448;-61
2021/12/07 04:49:44;;;;;;;21.55;8.80;;;;;;;9.94;91.63;95135.38;5116063;28;20524;-63
2021/12/07 04:57:46;;;;;;;14.75;6.75;;;;;;;9.91;91.46;95119.91;5116268;28;20058;-66
2021/12/07 05:00:20;;;;;;;12.63;7.20;;;;;;;9.91;91.46;95125.13;5116117;28;20426;-66
2021/12/07 05:02:51;;;;;;;18.17;8.60;;;;;;;9.90;91.39;95122.63;5116075;28;20019;-63
2021/12/07 05:05:19;;;;;;;16.05;8.27;;;;;;;9.84;91.80;95129.88;5116110;28;20453;-62
2021/12/07 05:07:52;;;;;;;15.27;10.02;;;;;;;9.81;92.11;95114.38;5115931;28;20023;-60
2021/12/07 05:15:28;;;;;;;20.38;11.80;;;;;;;9.73;92.51;95109.56;5115829;28;20033;-60
2021/12/07 05:18:04;;;;;;;21.83;12.57;;;;;;;9.73;92.76;95103.53;5115765;28;20027;-61
2021/12/07 05:39:38;;;;;;;14.50;11.27;;;;;;;9.71;92.74;95089.72;5115350;28;20047;-59
2021/12/07 05:42:04;;;;;;;11.20;9.52;;;;;;;9.66;92.91;95083.94;5115319;28;20024;-65
2021/12/07 05:44:29;;;;;;;19.70;10.30;;;;;;;9.72;92.36;95079.19;5115138;28;20024;-64
2021/12/07 05:46:55;;;;;;;13.90;7.35;;;;;;;9.77;91.33;95078.06;5115229;28;20022;-65
2021/12/07 05:49:20;;;;;;;15.00;8.98;;;;;;;9.80;91.18;95085.72;5115141;28;20023;-64
2021/12/07 05:51:46;;;;;;;12.55;9.05;;;;;;;9.83;91.40;95096.00;5115078;28;20031;-66
2021/12/07 05:54:12;;;;;;;14.45;7.80;;;;;;;9.90;90.77;95105.16;5115042;28;20026;-61
2021/12/07 05:56:37;;;;;;;11.13;6.65;;;;;;;9.95;89.14;95102.28;5114980;28;20115;-66
2021/12/07 05:59:03;;;;;;;11.45;6.47;;;;;;;10.02;89.25;95100.16;5113763;28;20491;-59
2021/12/07 06:01:29;;;;;;;17.35;7.05;;;;;;;10.03;89.25;95102.69;5114935;28;20028;-62
2021/12/07 06:03:54;;;;;;;10.35;6.45;;;;;;;10.06;89.64;95114.72;5114831;28;20027;-61
2021/12/07 06:06:20;;;;;;;7.55;4.20;;;;;;;10.03;89.40;95115.75;5114760;28;20020;-62
2021/12/07 06:08:45;;;;;;;8.00;5.15;;;;;;;9.99;89.68;95104.63;5114729;28;20106;-62
2021/12/07 06:11:11;;;;;;;7.35;6.07;;;;;;;10.05;89.95;95129.53;5114743;28;20044;-61
2021/12/07 06:13:37;;;;;;;10.80;7.05;;;;;;;9.99;90.41;95109.84;5114671;28;20434;-62
2021/12/07 06:16:05;;;;;;;7.72;4.13;;;;;;;10.05;89.50;95116.47;5114526;27;20028;-65
2021/12/07 06:18:31;;;;;;;12.05;4.70;;;;;;;10.05;89.75;95123.50;5114185;28;20080;-61
2021/12/07 06:20:56;;;;;;;9.02;4.28;;;;;;;10.04;89.77;95119.19;5114644;28;20031;-64
2021/12/07 06:23:22;;;;;;;6.07;4.50;;;;;;;10.09;89.36;95109.31;5114452;28;20019;-63
2021/12/07 06:25:49;;;;;;;7.10;5.15;;;;;;;10.03;89.50;95100.06;5114620;28;20022;-65
2021/12/07 06:28:16;;;;;;;6.15;4.20;;;;;;;10.04;88.99;95096.53;5114326;28;20019;-65
2021/12/07 06:30:44;;;;;;;5.25;3.63;;;;;;;10.02;88.60;95090.53;5114396;28;20024;-63
2021/12/07 06:33:11;;;;;;;7.80;3.67;;;;;;;10.09;88.00;95097.06;5114346;28;20070;-63
2021/12/07 06:35:37;;;;;;;6.32;3.38;;;;;;;9.94;87.14;95100.59;5114272;28;20051;-61
2021/12/07 06:38:02;;;;;;;4.82;4.32;;;;;;;9.85;87.46;95091.53;5114337;28;20054;-65
2021/12/07 06:40:28;;;;;;;6.65;4.25;;;;;;;9.85;88.28;95083.69;5114172;27;20099;-66
2021/12/07 06:42:59;;;;;;;9.85;4.80;;;;;;;9.83;88.70;95101.22;5114081;28;20477;-63
2021/12/07 06:45:26;;;;;;;8.70;5.15;;;;;;;9.77;89.34;95096.34;5114159;28;20023;-59
2021/12/07 06:47:53;;;;;;;7.38;5.03;;;;;;;9.76;88.85;95094.69;5113968;28;20492;-62
2021/12/07 06:50:18;;;;;;;7.70;5.10;;;;;;;9.77;88.95;95093.75;5114026;28;20056;-62
2021/12/07 06:52:44;;;;;;;8.27;5.25;;;;;;;9.76;88.72;95108.59;5113948;28;20027;-62
2021/12/07 06:55:09;;;;;;;9.82;6.13;;;;;;;9.73;89.37;95093.91;5113822;28;20020;-58
2021/12/07 06:57:35;;;;;;;9.38;5.85;;;;;;;9.75;89.43;95096.44;5113909;28;20098;-59
2021/12/07 07:00:01;;;;;;;9.23;7.68;;;;;;;9.78;89.86;95088.44;5113958;28;20027;-65
2021/12/07 07:02:26;;;;;;;7.95;6.70;;;;;;;9.77;88.98;95091.97;5113967;28;20559;-62
2021/12/07 07:04:52;;;;;;;8.32;6.88;;;;;;;9.78;88.06;95080.59;5113900;28;20031;-60
2021/12/07 07:07:22;;;;;;;17.40;8.30;;;;;;;9.81;88.15;95072.59;5113700;28;20042;-62
2021/12/07 07:09:47;;;;;;;18.02;9.20;;;;;;;9.88;89.04;95065.25;5113724;28;20035;-61
2021/12/07 07:12:13;;;;;;;19.17;10.82;;;;;;;9.87;89.44;95060.94;5113502;28;20493;-61
2021/12/07 07:14:38;;;;;;;14.73;10.30;;;;;;;9.88;89.12;95061.78;5113766;28;20035;-62
2021/12/07 07:17:04;;;;;;;13.90;10.82;;;;;;;9.86;88.56;95060.09;5112428;28;20470;-61
2021/12/07 07:19:30;;;;;;;18.65;12.95;;;;;;;9.96;89.06;95054.31;5113300;28;20051;-62
2021/12/07 07:22:01;;;;;;;14.77;11.27;;;;;;;9.94;87.85;95070.09;5113582;28;20048;-65
2021/12/07 07:24:28;;;;;;;11.05;9.20;;;;;;;9.90;86.80;95080.81;5113512;28;20040;-62
2021/12/07 07:26:53;;;;;;;12.45;8.35;;;;;;;9.84;87.27;95092.44;5113541;28;20024;-59
2021/12/07 07:29:19;;;;;;;11.45;7.38;;;;;;;9.89;86.45;95081.72;5113432;28;20422;-59
2021/12/07 07:31:45;;;;;;;16.10;7.10;;;;;;;9.95;86.71;95089.22;5113392;28;20030;-62
2021/12/07 07:34:10;;;;;;;13.23;5.47;;;;;;;9.87;86.14;95089.66;5113511;28;20024;-67
2021/12/07 07:36:36;;;;;;;13.45;6.28;;;;;;;9.94;85.70;95087.53;5113505;28;20020;-59
2021/12/07 07:39:02;;;;;;;8.15;4.25;;;;;;;10.05;82.92;95085.13;5113609;28;20027;-64
2021/12/07 07:41:28;;;;;;;12.93;4.30;;;;;;;10.07;82.43;95080.66;5113326;28;20393;-58
2021/12/07 07:43:53;;;;;;;11.02;4.05;;;;;;;10.12;81.71;95085.63;5113278;28;20016;-61
2021/12/07 07:46:19;;;;;;;8.30;4.93;;;;;;;10.12;83.03;95096.06;5113336;28;20476;-61
2021/12/07 07:48:45;;;;;;;8.27;5.30;;;;;;;9.94;83.67;95092.78;5113428;28;20020;-62
2021/12/07 07:51:11;;;;;;;9.05;5.45;;;;;;;9.91;85.02;95091.19;5113374;28;20024;-62
2021/12/07 07:53:37;;;;;;;10.90;7.13;;;;;;;9.86;86.08;95091.44;5113431;28;20376;-62
2021/12/07 07:56:03;;;;;;;11.13;6.10;;;;;;;9.89;86.00;95094.78;5113178;28;20020;-60
2021/12/07 07:58:28;;;;;;;13.02;5.65;;;;;;;9.93;85.76;95088.47;5113135;28;20088;-64
2021/12/07 08:00:55;;;;;;;12.68;6.47;;;;;;;9.90;86.54;95092.09;5113058;28;20103;-64
2021/12/07 08:03:20;;;;;;;11.38;6.50;;;;;;;9.98;86.21;95086.44;5113172;28;20032;-63
2021/12/07 08:05:46;;;;;;;13.02;6.93;;;;;;;10.02;86.19;95085.31;5112816;28;20035;-66
2021/12/07 08:08:12;;;;;;;15.93;8.40;;;;;;;10.09;86.49;95083.19;5113053;28;20385;-67
2021/12/07 08:10:38;;;;;;;10.75;6.57;;;;;;;10.10;86.10;95077.03;5113062;28;20052;-63
2021/12/07 08:13:06;;;;;;;11.45;6.00;;;;;;;10.09;86.20;95097.06;5112989;28;20024;-60
2021/12/07 08:15:36;;;;;;;10.07;6.35;;;;;;;10.07;86.28;95100.72;5113324;28;20148;-62
2021/12/07 08:18:03;;;;;;;12.10;6.65;;;;;;;10.05;86.25;95094.75;5113124;28;20046;-60
2021/12/07 08:20:28;;;;;;;16.35;7.20;;;;;;;10.01;86.42;95080.16;5112771;28;20404;-60
2021/12/07 08:22:55;;;;;;;7.70;6.18;;;;;;;10.05;86.85;95087.75;5114399;28;20032;-67
2021/12/07 08:25:21;;;;;;;11.73;6.30;;;;;;;10.05;86.76;95084.31;5116805;28;20016;-63
2021/12/07 08:27:47;;;;;;;8.77;5.18;;;;;;;10.09;85.63;95086.63;5116797;28;20102;-63
2021/12/07 08:30:15;;;;;;;9.85;5.40;;;;;;;10.12;85.65;95088.22;5116707;28;20027;-60
2021/12/07 08:32:45;;;;;;;11.05;5.85;;;;;;;10.15;84.36;95093.28;5116714;27;20031;-63
2021/12/07 08:35:16;;;;;;;11.20;5.82;;;;;;;10.10;84.83;95098.78;5116697;28;20469;-62
2021/12/07 08:37:44;;;;;;;16.27;6.72;;;;;;;10.07;84.96;95088.50;5116804;28;20024;-61
2021/12/07 08:40:10;;;;;;;14.27;6.93;;;;;;;10.11;85.43;95089.16;5116561;28;20110;-65
2021/12/07 08:42:37;;;;;;;16.92;7.20;;;;;;;10.17;85.15;95093.19;5116492;28;20039;-64
2021/12/07 08:45:05;;;;;;;11.40;7.05;;;;;;;10.19;85.88;95084.31;5116414;28;20016;-60
2021/12/07 08:47:31;;;;;;;11.77;7.60;;;;;;;10.26;85.58;95078.72;5116316;28;20023;-61
2021/12/07 08:49:57;;;;;;;16.10;8.02;;;;;;;10.32;85.15;95067.88;5116406;28;20034;-65
2021/12/07 08:52:24;;;;;;;13.75;8.25;;;;;;;10.31;84.89;95074.91;5116285;28;20028;-59
2021/12/07 09:00:03;;;;;;;16.88;10.38;;;;;;;10.35;86.22;95057.25;5116284;28;20508;-65
2021/12/07 09:02:29;;;;;;;19.40;10.20;;;;;;;10.43;84.96;95046.31;5116076;28;20041;-63
2021/12/07 09:04:55;;;;;;;17.08;10.57;;;;;;;10.42;85.20;95048.09;5116088;28;20461;-65
2021/12/07 09:07:22;;;;;;;15.65;9.40;;;;;;;10.42;84.63;95040.25;5116047;28;20051;-67
2021/12/07 09:09:49;;;;;;;15.93;8.85;;;;;;;10.42;84.53;95027.19;5115927;28;20453;-65
2021/12/07 09:12:17;;;;;;;26.10;9.05;;;;;;;10.42;84.22;95039.44;5115907;28;20051;-63
2021/12/07 09:14:44;;;;;;;14.98;7.80;;;;;;;10.45;84.20;95041.84;5115939;28;20440;-62
2021/12/07 09:17:11;;;;;;;18.00;7.93;;;;;;;10.43;83.41;95048.94;5115854;28;20046;-64
2021/12/07 09:19:38;;;;;;;23.10;8.27;;;;;;;10.37;84.52;95037.09;5115422;28;20051;-64
2021/12/07 09:22:05;;;;;;;16.10;9.48;;;;;;;10.38;84.85;95030.09;5115794;28;20027;-64
2021/12/07 09:24:31;;;;;;;14.23;8.35;;;;;;;10.35;84.84;95029.34;5115697;28;20020;-67
2021/12/07 09:26:57;;;;;;;17.58;8.57;;;;;;;10.35;85.22;95025.88;5115676;28;20019;-64
2021/12/07 09:29:22;;;;;;;18.98;8.48;;;;;;;10.43;84.70;95026.28;5115679;28;20028;-61
2021/12/07 09:31:48;;;;;;;18.75;8.98;;;;;;;10.34;84.91;95014.59;5115654;27;20046;-60
2021/12/07 09:34:14;;;;;;;18.98;8.00;;;;;;;10.33;84.86;95004.25;5115303;28;20019;-63
2021/12/07 09:36:42;;;;;;;14.43;8.15;;;;;;;10.40;84.80;95007.31;5115507;28;20096;-64
2021/12/07 09:39:10;;;;;;;19.92;7.70;;;;;;;10.42;83.86;95003.66;5114032;28;20024;-60
2021/12/07 09:41:36;;;;;;;16.33;7.55;;;;;;;10.47;83.87;95008.63;5115441;28;20069;-63
2021/12/07 09:44:03;;;;;;;15.63;6.90;;;;;;;10.51;83.87;95002.31;5115374;28;20069;-62
2021/12/07 09:46:29;;;;;;;22.38;7.50;;;;;;;10.49;84.15;94999.78;5115189;28;20034;-62
2021/12/07 09:48:55;;;;;;;10.25;5.30;;;;;;;10.50;83.50;94995.38;5115130;28;20020;-66
2021/12/07 09:51:22;;;;;;;12.38;6.13;;;;;;;10.42;85.41;95002.84;5115213;28;20026;-67
2021/12/07 09:53:50;;;;;;;18.27;6.57;;;;;;;10.37;84.25;94992.66;5115197;28;20012;-64
2021/12/07 09:56:20;;;;;;;13.00;6.13;;;;;;;10.48;83.81;94995.47;5115054;28;20381;-63
2021/12/07 09:58:49;;;;;;;15.23;6.70;;;;;;;10.51;84.38;94991.00;5115191;28;20094;-59
2021/12/07 10:01:14;;;;;;;18.23;6.80;;;;;;;10.55;84.16;94992.47;5114922;28;20644;-68
2021/12/07 10:03:41;;;;;;;17.20;6.07;;;;;;;10.60;83.22;94986.00;5114968;28;20016;-64
2021/12/07 10:06:07;;;;;;;13.05;5.63;;;;;;;10.57;83.37;94982.78;5114941;28;20034;-60
2021/12/07 10:08:33;;;;;;;22.52;5.47;;;;;;;10.57;83.29;94985.38;5114692;28;20076;-64
2021/12/07 10:11:01;;;;;;;14.00;5.43;;;;;;;10.66;82.32;94983.97;5114700;28;20051;-63
2021/12/07 10:13:30;;;;;;;17.02;4.43;;;;;;;10.61;81.65;94981.63;5114784;28;20476;-67
2021/12/07 10:15:58;;;;;;;15.40;5.15;;;;;;;10.60;82.60;94979.97;5114795;28;20030;-62
2021/12/07 10:18:31;;;;;;;10.98;4.80;;;;;;;10.59;82.13;94979.13;5114651;28;20024;-65
2021/12/07 10:21:10;;;;;;;19.15;5.45;;;;;;;10.58;82.39;94964.38;5114461;28;20043;-64
2021/12/07 10:23:39;;;;;;;22.30;5.85;;;;;;;10.63;82.43;94960.63;5114533;28;20552;-60
2021/12/07 10:26:09;;;;;;;12.75;4.28;;;;;;;10.54;82.02;94969.88;5114484;28;20407;-65
2021/12/07 10:28:50;;;;;;;15.13;4.45;;;;;;;10.44;81.83;94948.66;5114484;28;20167;-62
2021/12/07 10:31:18;;;;;;;19.75;4.72;;;;;;;10.47;81.58;94938.91;5114330;28;20063;-61
2021/12/07 10:33:54;;;;;;;13.55;4.68;;;;;;;10.53;79.65;94944.69;5114275;28;20136;-60
2021/12/07 10:36:43;;;;;;;10.45;4.25;;;;;;;10.56;79.79;94934.88;5114277;28;20039;-61
2021/12/07 10:39:13;;;;;;;15.63;3.50;;;;;;;10.58;78.40;94924.31;5114257;28;20480;-66
2021/12/07 10:41:43;;;;;;;12.73;3.58;;;;;;;10.60;79.52;94925.06;5114370;28;20036;-64
2021/12/07 10:44:12;;;;;;;7.47;2.78;;;;;;;10.56;79.55;94929.63;5114137;28;20690;-62
2021/12/07 10:46:53;;;;;;;9.63;3.30;;;;;;;10.35;80.46;94930.03;5113357;28;20035;-61
2021/12/07 10:49:36;;;;;;;11.45;3.42;;;;;;;10.35;79.80;94927.41;5113992;28;20373;-65
2021/12/07 10:52:16;;;;;;;11.13;3.75;;;;;;;10.28;80.40;94915.66;5114004;28;20024;-64
2021/12/07 10:54:42;;;;;;;;;;;;;;;10.30;80.34;94905.94;5114474;28;20019;-64
2021/12/07 10:57:15;;;;;;;13.98;4.40;;;;;;;10.24;81.58;94908.97;5113899;28;19918;-61
2021/12/07 10:59:49;;;;;;;11.38;5.05;;;;;;;10.27;80.91;94915.78;5113979;28;20107;-66
2021/12/07 11:02:17;;;;;;;9.18;3.88;;;;;;;10.27;80.09;94906.16;5113876;28;20027;-64
2021/12/07 11:04:44;;;;;;;13.10;3.08;;;;;;;10.22;78.07;94901.22;5113861;28;20023;-65
2021/12/07 11:07:12;;;;;;;7.45;3.28;;;;;;;10.29;78.57;94890.38;5113905;28;20028;-62
2021/12/07 11:12:48;;;;;;;7.93;3.78;;;;;;;10.29;79.58;94906.06;5104408;28;20031;-62
2021/12/07 11:15:22;;;;;;;10.32;4.10;;;;;;;10.33;80.03;94903.13;5113655;28;20035;-67
2021/12/07 11:17:47;;;;;;;18.50;4.72;;;;;;;10.38;79.63;94904.66;5113705;28;20362;-65
2021/12/07 11:20:14;;;;;;;16.33;3.63;;;;;;;10.32;80.71;94898.00;5113270;28;20065;-64
2021/12/07 11:22:45;;;;;;;19.05;4.55;;;;;;;10.32;79.76;94893.63;5113469;28;20035;-62
2021/12/07 11:25:21;;;;;;;10.38;3.55;;;;;;;10.27;80.70;94884.41;5113560;28;20024;-65
2021/12/07 11:30:32;;;;;;;15.63;5.30;;;;;;;10.27;81.08;94881.78;5113925;28;20098;-66
2021/12/07 11:32:59;;;;;;;18.67;6.05;;;;;;;10.26;81.72;94877.50;5113612;28;20053;-67
2021/12/07 11:35:33;;;;;;;17.25;5.72;;;;;;;10.26;81.65;94883.56;5113472;28;20031;-66
2021/12/07 11:38:03;;;;;;;12.82;5.10;;;;;;;10.35;80.94;94879.53;5113493;28;20038;-62
2021/12/07 11:40:37;;;;;;;13.80;3.10;;;;;;;10.33;79.25;94890.06;5113539;28;20035;-61
2021/12/07 11:43:14;;;;;;;15.20;3.58;;;;;;;10.34;79.83;94885.69;5113451;28;20032;-60
2021/12/07 11:45:43;;;;;;;11.00;3.33;;;;;;;10.23;80.10;94874.16;5112190;28;20039;-64
2021/12/07 11:48:10;;;;;;;8.98;3.42;;;;;;;10.17;81.05;94879.75;5113346;28;20036;-65
2021/12/07 11:50:42;;;;;;;11.90;4.38;;;;;;;10.15;80.82;94865.97;5113243;28;20023;-60
2021/12/07 11:53:20;;;;;;;11.88;3.95;;;;;;;10.16;80.83;94867.63;5113382;28;20479;-59
2021/12/07 11:55:49;;;;;;;12.73;4.53;;;;;;;10.16;81.36;94866.78;5113395;28;20488;-60
2021/12/07 11:58:16;;;;;;;13.18;4.53;;;;;;;10.18;81.48;94870.16;5116938;28;20077;-64
2021/12/07 12:00:50;;;;;;;10.95;4.13;;;;;;;10.19;81.30;94862.22;5117118;28;20051;-62
2021/12/07 12:03:19;;;;;;;9.25;3.63;;;;;;;10.27;80.81;94868.72;5117307;28;20042;-66
2021/12/07 12:05:48;;;;;;;8.88;3.30;;;;;;;10.23;80.38;94868.91;5117302;28;20085;-63
2021/12/07 12:08:16;;;;;;;12.15;3.70;;;;;;;10.16;80.25;94864.19;5117151;28;20020;-66
2021/12/07 12:10:47;;;;;;;12.93;3.97;;;;;;;10.09;80.79;94861.94;5117053;28;20023;-63
2021/12/07 12:13:31;;;;;;;;;;;;;;;10.09;80.61;94853.28;5117621;28;20102;-65
2021/12/07 12:16:11;;;;;;;20.58;5.50;;;;;;;10.02;80.55;94862.44;5116974;28;19912;-61
2021/12/07 12:19:06;;;;;;;13.40;5.00;;;;;;;9.93;80.76;94861.25;5116825;28;20038;-63
2021/12/07 12:21:49;;;;;;;14.13;3.88;;;;;;;9.82;80.75;94847.06;5116944;28;20043;-66
2021/12/07 12:24:33;;;;;;;8.43;4.00;;;;;;;9.82;81.77;94851.47;5116921;28;20095;-60
2021/12/07 12:27:09;;;;;;;15.38;5.10;;;;;;;9.80;82.16;94848.09;5116865;28;20023;-64
2021/12/07 12:29:37;;;;;;;12.25;4.85;;;;;;;9.75;82.16;94858.00;5116814;28;20035;-61
2021/12/07 12:32:04;;;;;;;19.52;5.15;;;;;;;9.65;82.82;94848.13;5116922;28;20096;-57
2021/12/07 12:34:32;;;;;;;12.48;3.90;;;;;;;9.63;82.51;94842.13;5116599;28;20046;-66
2021/12/07 12:37:04;;;;;;;13.50;4.68;;;;;;;9.62;82.74;94845.69;5116581;28;20024;-63
2021/12/07 12:39:39;;;;;;;13.15;4.40;;;;;;;9.50;83.39;94851.66;5116573;28;20055;-67
2021/12/07 12:42:05;;;;;;;12.73;5.03;;;;;;;9.51;84.19;94842.91;5116753;28;20107;-64
2021/12/07 12:44:35;;;;;;;15.18;4.10;;;;;;;9.37;84.44;94849.81;5116580;28;20015;-62
2021/12/07 12:47:03;;;;;;;12.23;3.50;;;;;;;9.31;85.16;94845.81;5116546;28;20547;-61
2021/12/07 12:49:42;;;;;;;13.65;3.47;;;;;;;9.16;85.50;94836.25;5116551;28;20267;-65
2021/12/07 12:52:10;;;;;;;8.52;3.22;;;;;;;9.15;85.85;94843.25;5116293;28;20027;-64
2021/12/07 12:54:47;;;;;;;11.30;3.85;;;;;;;9.19;86.29;94849.13;5116346;28;20058;-61
2021/12/07 12:57:17;;;;;;;10.07;3.45;;;;;;;9.10;85.47;94851.34;5116337;28;20026;-62
2021/12/07 12:59:46;;;;;;;14.20;4.40;;;;;;;9.08;86.01;94850.59;5116178;27;20028;-64
2021/12/07 13:02:12;;;;;;;9.88;2.83;;;;;;;9.05;85.57;94840.34;5116166;28;20069;-64
2021/12/07 13:04:39;;;;;;;10.02;3.60;;;;;;;9.04;86.50;94843.91;5116390;28;20028;-60
2021/12/07 13:07:26;;;;;;;11.30;4.57;;;;;;;9.07;86.18;94832.44;5116158;28;20102;-63
2021/12/07 13:10:01;;;;;;;8.50;4.20;;;;;;;9.10;86.03;94827.88;5115552;28;20107;-66
2021/12/07 13:12:38;;;;;;;9.05;4.10;;;;;;;9.12;86.11;94814.72;5116067;28;20469;-62
2021/12/07 13:15:08;;;;;;;5.70;3.10;;;;;;;9.15;85.85;94808.50;5115920;28;20031;-62
2021/12/07 13:17:41;;;;;;;13.65;3.92;;;;;;;9.20;86.01;94807.31;5115831;28;20058;-62